Hordafor III — LLVC — position and weather

sailwx.info

Track history (hours):
 
Tides and Currents Weather Stations Pressure Air Temp Water Temp Dewpoint Dewpoint Depression Visibility Wind Speed Wind Dir Waves Ship Positions

Hordafor III

Last reported at 2017-Mar-27 08:33 UTC. Time now 2017-Mar-27 08:41 UTC.
Position N 59°57' E 005°50'.

Length 50 m; draft 6 m.

Type: Cargo ship. MMSI: 258044000.

Date/timePositionNaut miles runAvg speedWind from/ knotsBaromVisibWave heightAir tempDewpointWater temp
2017-Mar-27 08:33N 59°57' E 005°50'8 7.9
2017-Mar-27 07:33N 60°04' E 005°42'1010.4
2017-Mar-27 06:33N 60°06' E 005°22'4 3.5
2017-Mar-27 05:34N 60°02' E 005°21'1 0.8
2017-Mar-27 04:33N 60°02' E 005°20'6 6.2
2017-Mar-27 03:33N 60°00' E 005°07'0 0.2
2017-Mar-27 02:33N 60°00' E 005°07'0 0.0
2017-Mar-27 01:33N 60°00' E 005°07'0 0.0
2017-Mar-27 00:33N 60°00' E 005°07'0 0.0
2017-Mar-26 23:33N 60°00' E 005°07'0 0.0
2017-Mar-26 22:33N 60°00' E 005°07'1 1.2
2017-Mar-26 21:33N 60°01' E 005°08'9 8.9
2017-Mar-26 20:34N 60°10' E 005°13'1 0.7
2017-Mar-26 19:33N 60°09' E 005°14'5 5.4
2017-Mar-26 18:33N 60°04' E 005°10'4 4.3
2017-Mar-26 17:33N 60°00' E 005°07'0 0.4
2017-Mar-26 16:33N 60°01' E 005°07'1 0.7
2017-Mar-26 15:34N 60°00' E 005°06'0 0.4
2017-Mar-26 14:33N 60°00' E 005°07'0 0.0
2017-Mar-26 13:33N 60°00' E 005°07'0 0.0
2017-Mar-26 12:33N 60°00' E 005°07'0 0.0
2017-Mar-26 11:33N 60°00' E 005°07'0 0.0
2017-Mar-26 10:33N 60°00' E 005°07'0 0.0
2017-Mar-26 09:33N 60°00' E 005°07'0 0.0
2017-Mar-26 08:33N 60°00' E 005°07'0 0.0
2017-Mar-26 07:34N 60°00' E 005°07'0 0.0
2017-Mar-26 06:33N 60°00' E 005°07'0 0.0
2017-Mar-26 05:33N 60°00' E 005°07'0 0.0
2017-Mar-26 04:33N 60°00' E 005°07'0 0.0
2017-Mar-26 03:33N 60°00' E 005°07'0 0.0
2017-Mar-26 02:33N 60°00' E 005°07'0 0.0
2017-Mar-26 01:33N 60°00' E 005°07'3 3.0
2017-Mar-26 00:33N 60°03' E 005°10'1110.7
2017-Mar-25 23:33N 60°13' E 005°10'1010.3
2017-Mar-25 22:33N 60°24' E 005°09'1010.1
2017-Mar-25 21:33N 60°32' E 004°57'1110.6
2017-Mar-25 20:33N 60°42' E 004°49'9 9.0
2017-Mar-25 19:33N 60°51' E 004°49'3 2.7
2017-Mar-25 18:33N 60°54' E 004°50'0 0.0
2017-Mar-25 17:33N 60°54' E 004°50'4 3.8
2017-Mar-25 16:33N 60°52' E 004°57'8 7.6
2017-Mar-25 15:33N 60°58' E 005°07'0 0.3
2017-Mar-25 14:33N 60°58' E 005°06'0 0.0
2017-Mar-25 13:33N 60°58' E 005°06'0 0.1
2017-Mar-25 12:33N 60°58' E 005°06'0 0.0
2017-Mar-25 11:33N 60°58' E 005°06'0 0.1
2017-Mar-25 10:33N 60°58' E 005°06'0 0.1
2017-Mar-25 09:33N 60°58' E 005°07'0 0.0
2017-Mar-25 08:33N 60°58' E 005°07'0 0.1
2017-Mar-25 07:33N 60°58' E 005°07'4 3.6
2017-Mar-25 06:33N 60°58' E 004°59'8 7.9
2017-Mar-25 05:33N 60°51' E 004°51'7 7.0
2017-Mar-25 04:34N 60°44' E 004°49'1010.0
2017-Mar-25 03:33N 60°34' E 004°55'1010.1
2017-Mar-25 02:33N 60°25' E 005°04'9 8.8
2017-Mar-25 01:33N 60°17' E 005°09'10 9.8
2017-Mar-25 00:33N 60°07' E 005°11'7 7.3
2017-Mar-24 23:33N 60°00' E 005°07'0 0.0
2017-Mar-24 22:33N 60°00' E 005°07'7 6.6
2017-Mar-24 21:33N 59°54' E 005°06'0 0.2
2017-Mar-24 20:33N 59°54' E 005°06'0 0.1
2017-Mar-24 19:33N 59°54' E 005°06'7 6.6
2017-Mar-24 18:33N 60°00' E 005°07'0 0.0
2017-Mar-24 17:33N 60°00' E 005°07'0 0.0
2017-Mar-24 16:33N 60°00' E 005°07'4 4.3
2017-Mar-24 15:33N 59°59' E 005°15'4 4.1
2017-Mar-24 14:34N 60°02' E 005°21'6 6.2
2017-Mar-24 13:33N 60°07' E 005°28'7 7.4
2017-Mar-24 12:33N 60°10' E 005°42'8 7.9
2017-Mar-24 11:33N 60°02' E 005°42'7 7.0
2017-Mar-24 10:32N 60°01' E 005°56'0 0.5
2017-Mar-24 09:33N 60°01' E 005°57'5 5.2
2017-Mar-24 08:33N 59°57' E 005°50'5 5.4
2017-Mar-24 07:32N 59°53' E 005°43'5 5.5
2017-Mar-24 06:33N 59°53' E 005°32'9 9.5
2017-Mar-24 05:33N 59°59' E 005°17'7 6.7
2017-Mar-24 04:33N 60°06' E 005°13'0 0.0
2017-Mar-24 03:33N 60°06' E 005°13'0 0.0
2017-Mar-24 02:33N 60°06' E 005°13'8 7.8
2017-Mar-24 01:33N 59°58' E 005°11'1010.6
2017-Mar-24 00:33N 59°48' E 005°19'10 9.5
2017-Mar-23 23:33N 59°38' E 005°19'1010.4
2017-Mar-23 22:33N 59°29' E 005°13'5 5.0
2017-Mar-23 21:33N 59°24' E 005°16'0 0.0
2017-Mar-23 20:34N 59°24' E 005°16'8 8.0
2017-Mar-23 19:33N 59°16' E 005°20'10 9.9
2017-Mar-23 18:34N 59°07' E 005°29'1111.0
2017-Mar-23 17:33N 59°02' E 005°49'5 5.5
2017-Mar-23 16:33N 58°59' E 005°56'0 0.1
2017-Mar-23 15:34N 58°59' E 005°56'10 9.6
2017-Mar-23 14:33N 59°02' E 005°38'8 8.1
2017-Mar-23 13:34N 58°54' E 005°32'1010.2
2017-Mar-23 12:33N 58°44' E 005°27'1110.7
2017-Mar-23 11:34N 58°35' E 005°36'1010.4
2017-Mar-23 10:33N 58°27' E 005°49'5 5.4
2017-Mar-23 09:34N 58°27' E 005°59'0 0.0
2017-Mar-23 08:34N 58°27' E 005°59'0 0.0
2017-Mar-23 07:34N 58°27' E 005°59'0 0.0
2017-Mar-23 06:33N 58°27' E 005°59'0 0.0
2017-Mar-23 05:34N 58°27' E 005°59'0 0.0
2017-Mar-23 04:34N 58°27' E 005°59'4 3.8
2017-Mar-23 03:33N 58°24' E 005°54'1110.6
2017-Mar-23 02:33N 58°32' E 005°39'1110.7
2017-Mar-23 01:33N 58°41' E 005°28'1110.6
2017-Mar-23 00:33N 58°51' E 005°22'1110.5
2017-Mar-22 23:33N 59°01' E 005°18'1110.6
2017-Mar-22 22:34N 59°12' E 005°20'1110.8
2017-Mar-22 21:33N 59°22' E 005°18'10 9.7
2017-Mar-22 20:33N 59°32' E 005°13'1111.0
2017-Mar-22 19:33N 59°41' E 005°24'1010.5
2017-Mar-22 18:33N 59°51' E 005°16'1010.1
2017-Mar-22 17:33N 59°60' E 005°06'1 0.6
2017-Mar-22 16:33N 60°00' E 005°07'0 0.0
2017-Mar-22 15:33N 60°00' E 005°07'0 0.0
2017-Mar-22 14:33N 60°00' E 005°07'0 0.0
2017-Mar-22 13:33N 60°00' E 005°07'1 0.8
2017-Mar-22 12:33N 60°01' E 005°08'1111.0
2017-Mar-22 11:33N 60°12' E 005°11'8 7.6
2017-Mar-22 10:33N 60°19' E 005°12'9 8.9
2017-Mar-22 09:33N 60°28' E 005°15'5 4.7
2017-Mar-22 08:33N 60°32' E 005°21'1 0.8
2017-Mar-22 07:33N 60°31' E 005°23'2 1.9
2017-Mar-22 06:33N 60°33' E 005°23'1 0.8
2017-Mar-22 05:33N 60°33' E 005°22'6 6.3
2017-Mar-22 04:33N 60°28' E 005°15'9 8.7
2017-Mar-22 03:33N 60°20' E 005°09'1110.7
2017-Mar-22 02:33N 60°09' E 005°11'4 3.6
2017-Mar-22 01:33N 60°06' E 005°13'0 0.0
2017-Mar-22 00:33N 60°06' E 005°13'0 0.0
2017-Mar-21 23:33N 60°06' E 005°13'0 0.0
2017-Mar-21 22:33N 60°06' E 005°13'0 0.0
2017-Mar-21 21:33N 60°06' E 005°13'0 0.0
2017-Mar-21 20:33N 60°06' E 005°13'2 2.1
2017-Mar-21 19:34N 60°07' E 005°11'9 9.4
2017-Mar-21 18:33N 60°17' E 005°11'3 3.4
2017-Mar-21 17:33N 60°13' E 005°10'8 8.2
2017-Mar-21 16:34N 60°07' E 005°21'2 1.5
2017-Mar-21 15:34N 60°06' E 005°21'2 1.6
2017-Mar-21 14:34N 60°07' E 005°21'1 1.4
2017-Mar-21 13:34N 60°08' E 005°24'6 5.8
2017-Mar-21 12:33N 60°02' E 005°21'3 2.6
2017-Mar-21 11:34N 59°60' E 005°21'4 3.8
2017-Mar-21 10:33N 59°57' E 005°26'8 7.9
2017-Mar-21 09:33N 59°57' E 005°10'6 6.4
2017-Mar-21 08:33N 59°51' E 005°16'6 5.9
2017-Mar-21 07:33N 59°56' E 005°10'3 2.9
2017-Mar-21 06:33N 59°54' E 005°06'0 0.0
2017-Mar-21 05:33N 59°54' E 005°06'0 0.0
2017-Mar-21 04:33N 59°54' E 005°06'7 6.5
2017-Mar-21 03:33N 59°59' E 005°14'4 3.6
2017-Mar-21 02:34N 60°00' E 005°07'0 0.0
2017-Mar-21 01:34N 60°00' E 005°07'0 0.0
2017-Mar-21 00:33N 60°00' E 005°07'0 0.0
2017-Mar-20 23:33N 60°00' E 005°07'0 0.0
2017-Mar-20 22:33N 60°00' E 005°07'0 0.0
2017-Mar-20 21:33N 60°00' E 005°07'0 0.0
2017-Mar-20 20:32N 60°00' E 005°07'0 0.1
2017-Mar-20 19:33N 60°00' E 005°07'0 0.0
2017-Mar-20 18:33N 60°00' E 005°07'0 0.0
2017-Mar-20 17:33N 60°00' E 005°07'8 7.7
2017-Mar-20 16:33N 60°08' E 005°11'10 9.8
2017-Mar-20 15:33N 60°17' E 005°09'8 8.0
2017-Mar-20 14:34N 60°25' E 005°04'10 9.6
2017-Mar-20 13:33N 60°34' E 004°56'1010.1
2017-Mar-20 12:33N 60°43' E 004°48'9 9.4
2017-Mar-20 11:33N 60°52' E 004°46'9 8.8
2017-Mar-20 10:30N 61°01' E 004°54'9 9.2
2017-Mar-20 09:33N 61°09' E 005°01'9 8.7
2017-Mar-20 08:33N 61°17' E 004°57'8 7.7
2017-Mar-20 07:33N 61°25' E 004°58'10 9.6
2017-Mar-20 06:33N 61°35' E 004°57'10 9.6
2017-Mar-20 05:33N 61°44' E 004°59'9 9.5
2017-Mar-20 04:33N 61°50' E 005°15'7 7.4
2017-Mar-20 03:33N 61°57' E 005°08'9 9.5
2017-Mar-20 02:33N 62°06' E 005°06'7 7.2
2017-Mar-20 01:34N 62°13' E 005°08'9 9.0
2017-Mar-20 00:33N 62°12' E 005°27'1010.3
2017-Mar-19 23:33N 62°13' E 005°49'1010.0
2017-Mar-19 22:33N 62°19' E 006°05'9 8.9
2017-Mar-19 21:33N 62°28' E 006°04'10 9.9
2017-Mar-19 20:33N 62°36' E 006°17'1110.5
2017-Mar-19 19:33N 62°39' E 006°39'1110.8
2017-Mar-19 18:33N 62°40' E 007°03'1110.9
2017-Mar-19 17:33N 62°39' E 007°26'3 3.3
2017-Mar-19 16:33N 62°41' E 007°20'1 0.8
2017-Mar-19 15:33N 62°40' E 007°19'10 9.5
2017-Mar-19 14:34N 62°43' E 006°59'9 9.3
2017-Mar-19 13:33N 62°52' E 006°56'7 7.1
2017-Mar-19 12:33N 62°59' E 006°57'10 9.7
2017-Mar-19 11:33N 63°03' E 007°17'4 4.2
2017-Mar-19 10:33N 63°03' E 007°27'0 0.0
2017-Mar-19 09:33N 63°03' E 007°27'0 0.0
2017-Mar-19 08:33N 63°03' E 007°27'0 0.0
2017-Mar-19 07:33N 63°03' E 007°27'0 0.0
2017-Mar-19 06:33N 63°03' E 007°27'0 0.0
2017-Mar-19 05:33N 63°03' E 007°27'0 0.0
2017-Mar-19 04:33N 63°03' E 007°27'0 0.0
2017-Mar-19 03:34N 63°03' E 007°27'3 3.1
2017-Mar-19 02:34N 63°03' E 007°20'1110.7
2017-Mar-19 01:34N 62°59' E 006°57'1110.6
2017-Mar-19 00:33N 62°51' E 006°42'1110.9
2017-Mar-18 23:33N 62°42' E 006°29'1111.0
2017-Mar-18 22:34N 62°34' E 006°13'1010.1
2017-Mar-18 21:33N 62°25' E 006°04'10 9.5
2017-Mar-18 20:33N 62°16' E 005°58'1110.7
2017-Mar-18 19:33N 62°11' E 005°37'9 9.4
2017-Mar-18 18:33N 62°12' E 005°17'7 7.2
2017-Mar-18 17:33N 62°08' E 005°05'1110.9
2017-Mar-18 16:33N 61°57' E 005°09'1 1.4
2017-Mar-18 15:32N 61°56' E 005°07'5 5.3
2017-Mar-18 14:33N 61°52' E 005°14'9 9.3
2017-Mar-18 13:33N 61°45' E 005°01'1010.4
2017-Mar-18 12:33N 61°35' E 004°57'1110.6
2017-Mar-18 11:33N 61°25' E 004°58'8 8.0
2017-Mar-18 10:33N 61°17' E 004°55'1010.1
2017-Mar-18 09:32N 61°07' E 005°02'1010.6
2017-Mar-18 08:33N 60°58' E 004°51'9 9.4
2017-Mar-18 07:33N 60°49' E 004°45'1110.7
2017-Mar-18 06:33N 60°39' E 004°52'1111.0
2017-Mar-18 05:33N 60°29' E 004°60'10 9.9
2017-Mar-18 04:33N 60°20' E 005°10'1010.3
2017-Mar-18 03:33N 60°10' E 005°11'10 9.7
2017-Mar-18 02:33N 60°00' E 005°07'0 0.0
2017-Mar-18 01:33N 60°00' E 005°07'0 0.0
2017-Mar-18 00:33N 60°00' E 005°07'2 2.3
2017-Mar-17 23:33N 60°02' E 005°09'1110.6
2017-Mar-17 22:33N 60°13' E 005°10'9 9.2
2017-Mar-17 21:33N 60°22' E 005°10'9 9.0
2017-Mar-17 20:32N 60°31' E 005°15'5 5.1
2017-Mar-17 19:33N 60°30' E 005°26'0 0.0
2017-Mar-17 18:33N 60°30' E 005°26'0 0.0
2017-Mar-17 17:33N 60°30' E 005°26'0 0.2
2017-Mar-17 16:32N 60°30' E 005°25'10 9.9
2017-Mar-17 15:33N 60°36' E 005°09'1010.3
2017-Mar-17 14:34N 60°41' E 004°51'10 9.5
2017-Mar-17 13:33N 60°50' E 004°45'4 4.3
2017-Mar-17 12:33N 60°54' E 004°50'0 0.0
2017-Mar-17 11:33N 60°54' E 004°50'4 4.4
2017-Mar-17 10:33N 60°58' E 004°51'7 7.5
2017-Mar-17 09:34N 60°58' E 005°06'  
Track history (hours):
 
Tides and Currents Weather Stations Pressure Air Temp Water Temp Dewpoint Dewpoint Depression Visibility Wind Speed Wind Dir Waves Ship Positions

Hordafor III

Last reported at 2017-Mar-27 08:33 UTC. Time now 2017-Mar-27 08:41 UTC.
Position N 59°57' E 005°50'.

Length 50 m; draft 6 m.

Type: Cargo ship. MMSI: 258044000.

Date/timePositionNaut miles runAvg speedWind from/ knotsBaromVisibWave heightAir tempDewpointWater temp
2017-Mar-27 08:33N 59°57' E 005°50'8 7.9
2017-Mar-27 07:33N 60°04' E 005°42'1010.4
2017-Mar-27 06:33N 60°06' E 005°22'4 3.5
2017-Mar-27 05:34N 60°02' E 005°21'1 0.8
2017-Mar-27 04:33N 60°02' E 005°20'6 6.2
2017-Mar-27 03:33N 60°00' E 005°07'0 0.2
2017-Mar-27 02:33N 60°00' E 005°07'0 0.0
2017-Mar-27 01:33N 60°00' E 005°07'0 0.0
2017-Mar-27 00:33N 60°00' E 005°07'0 0.0
2017-Mar-26 23:33N 60°00' E 005°07'0 0.0
2017-Mar-26 22:33N 60°00' E 005°07'1 1.2
2017-Mar-26 21:33N 60°01' E 005°08'9 8.9
2017-Mar-26 20:34N 60°10' E 005°13'1 0.7
2017-Mar-26 19:33N 60°09' E 005°14'5 5.4
2017-Mar-26 18:33N 60°04' E 005°10'4 4.3
2017-Mar-26 17:33N 60°00' E 005°07'0 0.4
2017-Mar-26 16:33N 60°01' E 005°07'1 0.7
2017-Mar-26 15:34N 60°00' E 005°06'0 0.4
2017-Mar-26 14:33N 60°00' E 005°07'0 0.0
2017-Mar-26 13:33N 60°00' E 005°07'0 0.0
2017-Mar-26 12:33N 60°00' E 005°07'0 0.0
2017-Mar-26 11:33N 60°00' E 005°07'0 0.0
2017-Mar-26 10:33N 60°00' E 005°07'0 0.0
2017-Mar-26 09:33N 60°00' E 005°07'0 0.0
2017-Mar-26 08:33N 60°00' E 005°07'0 0.0
2017-Mar-26 07:34N 60°00' E 005°07'0 0.0
2017-Mar-26 06:33N 60°00' E 005°07'0 0.0
2017-Mar-26 05:33N 60°00' E 005°07'0 0.0
2017-Mar-26 04:33N 60°00' E 005°07'0 0.0
2017-Mar-26 03:33N 60°00' E 005°07'0 0.0
2017-Mar-26 02:33N 60°00' E 005°07'0 0.0
2017-Mar-26 01:33N 60°00' E 005°07'3 3.0
2017-Mar-26 00:33N 60°03' E 005°10'1110.7
2017-Mar-25 23:33N 60°13' E 005°10'1010.3
2017-Mar-25 22:33N 60°24' E 005°09'1010.1
2017-Mar-25 21:33N 60°32' E 004°57'1110.6
2017-Mar-25 20:33N 60°42' E 004°49'9 9.0
2017-Mar-25 19:33N 60°51' E 004°49'3 2.7
2017-Mar-25 18:33N 60°54' E 004°50'0 0.0
2017-Mar-25 17:33N 60°54' E 004°50'4 3.8
2017-Mar-25 16:33N 60°52' E 004°57'8 7.6
2017-Mar-25 15:33N 60°58' E 005°07'0 0.3
2017-Mar-25 14:33N 60°58' E 005°06'0 0.0
2017-Mar-25 13:33N 60°58' E 005°06'0 0.1
2017-Mar-25 12:33N 60°58' E 005°06'0 0.0
2017-Mar-25 11:33N 60°58' E 005°06'0 0.1
2017-Mar-25 10:33N 60°58' E 005°06'0 0.1
2017-Mar-25 09:33N 60°58' E 005°07'0 0.0
2017-Mar-25 08:33N 60°58' E 005°07'0 0.1
2017-Mar-25 07:33N 60°58' E 005°07'4 3.6
2017-Mar-25 06:33N 60°58' E 004°59'8 7.9
2017-Mar-25 05:33N 60°51' E 004°51'7 7.0
2017-Mar-25 04:34N 60°44' E 004°49'1010.0
2017-Mar-25 03:33N 60°34' E 004°55'1010.1
2017-Mar-25 02:33N 60°25' E 005°04'9 8.8
2017-Mar-25 01:33N 60°17' E 005°09'10 9.8
2017-Mar-25 00:33N 60°07' E 005°11'7 7.3
2017-Mar-24 23:33N 60°00' E 005°07'0 0.0
2017-Mar-24 22:33N 60°00' E 005°07'7 6.6
2017-Mar-24 21:33N 59°54' E 005°06'0 0.2
2017-Mar-24 20:33N 59°54' E 005°06'0 0.1
2017-Mar-24 19:33N 59°54' E 005°06'7 6.6
2017-Mar-24 18:33N 60°00' E 005°07'0 0.0
2017-Mar-24 17:33N 60°00' E 005°07'0 0.0
2017-Mar-24 16:33N 60°00' E 005°07'4 4.3
2017-Mar-24 15:33N 59°59' E 005°15'4 4.1
2017-Mar-24 14:34N 60°02' E 005°21'6 6.2
2017-Mar-24 13:33N 60°07' E 005°28'7 7.4
2017-Mar-24 12:33N 60°10' E 005°42'8 7.9
2017-Mar-24 11:33N 60°02' E 005°42'7 7.0
2017-Mar-24 10:32N 60°01' E 005°56'0 0.5
2017-Mar-24 09:33N 60°01' E 005°57'5 5.2
2017-Mar-24 08:33N 59°57' E 005°50'5 5.4
2017-Mar-24 07:32N 59°53' E 005°43'5 5.5
2017-Mar-24 06:33N 59°53' E 005°32'9 9.5
2017-Mar-24 05:33N 59°59' E 005°17'7 6.7
2017-Mar-24 04:33N 60°06' E 005°13'0 0.0
2017-Mar-24 03:33N 60°06' E 005°13'0 0.0
2017-Mar-24 02:33N 60°06' E 005°13'8 7.8
2017-Mar-24 01:33N 59°58' E 005°11'1010.6
2017-Mar-24 00:33N 59°48' E 005°19'10 9.5
2017-Mar-23 23:33N 59°38' E 005°19'1010.4
2017-Mar-23 22:33N 59°29' E 005°13'5 5.0
2017-Mar-23 21:33N 59°24' E 005°16'0 0.0
2017-Mar-23 20:34N 59°24' E 005°16'8 8.0
2017-Mar-23 19:33N 59°16' E 005°20'10 9.9
2017-Mar-23 18:34N 59°07' E 005°29'1111.0
2017-Mar-23 17:33N 59°02' E 005°49'5 5.5
2017-Mar-23 16:33N 58°59' E 005°56'0 0.1
2017-Mar-23 15:34N 58°59' E 005°56'10 9.6
2017-Mar-23 14:33N 59°02' E 005°38'8 8.1
2017-Mar-23 13:34N 58°54' E 005°32'1010.2
2017-Mar-23 12:33N 58°44' E 005°27'1110.7
2017-Mar-23 11:34N 58°35' E 005°36'1010.4
2017-Mar-23 10:33N 58°27' E 005°49'5 5.4
2017-Mar-23 09:34N 58°27' E 005°59'0 0.0
2017-Mar-23 08:34N 58°27' E 005°59'0 0.0
2017-Mar-23 07:34N 58°27' E 005°59'0 0.0
2017-Mar-23 06:33N 58°27' E 005°59'0 0.0
2017-Mar-23 05:34N 58°27' E 005°59'0 0.0
2017-Mar-23 04:34N 58°27' E 005°59'4 3.8
2017-Mar-23 03:33N 58°24' E 005°54'1110.6
2017-Mar-23 02:33N 58°32' E 005°39'1110.7
2017-Mar-23 01:33N 58°41' E 005°28'1110.6
2017-Mar-23 00:33N 58°51' E 005°22'1110.5
2017-Mar-22 23:33N 59°01' E 005°18'1110.6
2017-Mar-22 22:34N 59°12' E 005°20'1110.8
2017-Mar-22 21:33N 59°22' E 005°18'10 9.7
2017-Mar-22 20:33N 59°32' E 005°13'1111.0
2017-Mar-22 19:33N 59°41' E 005°24'1010.5
2017-Mar-22 18:33N 59°51' E 005°16'1010.1
2017-Mar-22 17:33N 59°60' E 005°06'1 0.6
2017-Mar-22 16:33N 60°00' E 005°07'0 0.0
2017-Mar-22 15:33N 60°00' E 005°07'0 0.0
2017-Mar-22 14:33N 60°00' E 005°07'0 0.0
2017-Mar-22 13:33N 60°00' E 005°07'1 0.8
2017-Mar-22 12:33N 60°01' E 005°08'1111.0
2017-Mar-22 11:33N 60°12' E 005°11'8 7.6
2017-Mar-22 10:33N 60°19' E 005°12'9 8.9
2017-Mar-22 09:33N 60°28' E 005°15'5 4.7
2017-Mar-22 08:33N 60°32' E 005°21'1 0.8
2017-Mar-22 07:33N 60°31' E 005°23'2 1.9
2017-Mar-22 06:33N 60°33' E 005°23'1 0.8
2017-Mar-22 05:33N 60°33' E 005°22'6 6.3
2017-Mar-22 04:33N 60°28' E 005°15'9 8.7
2017-Mar-22 03:33N 60°20' E 005°09'1110.7
2017-Mar-22 02:33N 60°09' E 005°11'4 3.6
2017-Mar-22 01:33N 60°06' E 005°13'0 0.0
2017-Mar-22 00:33N 60°06' E 005°13'0 0.0
2017-Mar-21 23:33N 60°06' E 005°13'0 0.0
2017-Mar-21 22:33N 60°06' E 005°13'0 0.0
2017-Mar-21 21:33N 60°06' E 005°13'0 0.0
2017-Mar-21 20:33N 60°06' E 005°13'2 2.1
2017-Mar-21 19:34N 60°07' E 005°11'9 9.4
2017-Mar-21 18:33N 60°17' E 005°11'3 3.4
2017-Mar-21 17:33N 60°13' E 005°10'8 8.2
2017-Mar-21 16:34N 60°07' E 005°21'2 1.5
2017-Mar-21 15:34N 60°06' E 005°21'2 1.6
2017-Mar-21 14:34N 60°07' E 005°21'1 1.4
2017-Mar-21 13:34N 60°08' E 005°24'6 5.8
2017-Mar-21 12:33N 60°02' E 005°21'3 2.6
2017-Mar-21 11:34N 59°60' E 005°21'4 3.8
2017-Mar-21 10:33N 59°57' E 005°26'8 7.9
2017-Mar-21 09:33N 59°57' E 005°10'6 6.4
2017-Mar-21 08:33N 59°51' E 005°16'6 5.9
2017-Mar-21 07:33N 59°56' E 005°10'3 2.9
2017-Mar-21 06:33N 59°54' E 005°06'0 0.0
2017-Mar-21 05:33N 59°54' E 005°06'0 0.0
2017-Mar-21 04:33N 59°54' E 005°06'7 6.5
2017-Mar-21 03:33N 59°59' E 005°14'4 3.6
2017-Mar-21 02:34N 60°00' E 005°07'0 0.0
2017-Mar-21 01:34N 60°00' E 005°07'0 0.0
2017-Mar-21 00:33N 60°00' E 005°07'0 0.0
2017-Mar-20 23:33N 60°00' E 005°07'0 0.0
2017-Mar-20 22:33N 60°00' E 005°07'0 0.0
2017-Mar-20 21:33N 60°00' E 005°07'0 0.0
2017-Mar-20 20:32N 60°00' E 005°07'0 0.1
2017-Mar-20 19:33N 60°00' E 005°07'0 0.0
2017-Mar-20 18:33N 60°00' E 005°07'0 0.0
2017-Mar-20 17:33N 60°00' E 005°07'8 7.7
2017-Mar-20 16:33N 60°08' E 005°11'10 9.8
2017-Mar-20 15:33N 60°17' E 005°09'8 8.0
2017-Mar-20 14:34N 60°25' E 005°04'10 9.6
2017-Mar-20 13:33N 60°34' E 004°56'1010.1
2017-Mar-20 12:33N 60°43' E 004°48'9 9.4
2017-Mar-20 11:33N 60°52' E 004°46'9 8.8
2017-Mar-20 10:30N 61°01' E 004°54'9 9.2
2017-Mar-20 09:33N 61°09' E 005°01'9 8.7
2017-Mar-20 08:33N 61°17' E 004°57'8 7.7
2017-Mar-20 07:33N 61°25' E 004°58'10 9.6
2017-Mar-20 06:33N 61°35' E 004°57'10 9.6
2017-Mar-20 05:33N 61°44' E 004°59'9 9.5
2017-Mar-20 04:33N 61°50' E 005°15'7 7.4
2017-Mar-20 03:33N 61°57' E 005°08'9 9.5
2017-Mar-20 02:33N 62°06' E 005°06'7 7.2
2017-Mar-20 01:34N 62°13' E 005°08'9 9.0
2017-Mar-20 00:33N 62°12' E 005°27'1010.3
2017-Mar-19 23:33N 62°13' E 005°49'1010.0
2017-Mar-19 22:33N 62°19' E 006°05'9 8.9
2017-Mar-19 21:33N 62°28' E 006°04'10 9.9
2017-Mar-19 20:33N 62°36' E 006°17'1110.5
2017-Mar-19 19:33N 62°39' E 006°39'1110.8
2017-Mar-19 18:33N 62°40' E 007°03'1110.9
2017-Mar-19 17:33N 62°39' E 007°26'3 3.3
2017-Mar-19 16:33N 62°41' E 007°20'1 0.8
2017-Mar-19 15:33N 62°40' E 007°19'10 9.5
2017-Mar-19 14:34N 62°43' E 006°59'9 9.3
2017-Mar-19 13:33N 62°52' E 006°56'7 7.1
2017-Mar-19 12:33N 62°59' E 006°57'10 9.7
2017-Mar-19 11:33N 63°03' E 007°17'4 4.2
2017-Mar-19 10:33N 63°03' E 007°27'0 0.0
2017-Mar-19 09:33N 63°03' E 007°27'0 0.0
2017-Mar-19 08:33N 63°03' E 007°27'0 0.0
2017-Mar-19 07:33N 63°03' E 007°27'0 0.0
2017-Mar-19 06:33N 63°03' E 007°27'0 0.0
2017-Mar-19 05:33N 63°03' E 007°27'0 0.0
2017-Mar-19 04:33N 63°03' E 007°27'0 0.0
2017-Mar-19 03:34N 63°03' E 007°27'3 3.1
2017-Mar-19 02:34N 63°03' E 007°20'1110.7
2017-Mar-19 01:34N 62°59' E 006°57'1110.6
2017-Mar-19 00:33N 62°51' E 006°42'1110.9
2017-Mar-18 23:33N 62°42' E 006°29'1111.0
2017-Mar-18 22:34N 62°34' E 006°13'1010.1
2017-Mar-18 21:33N 62°25' E 006°04'10 9.5
2017-Mar-18 20:33N 62°16' E 005°58'1110.7
2017-Mar-18 19:33N 62°11' E 005°37'9 9.4
2017-Mar-18 18:33N 62°12' E 005°17'7 7.2
2017-Mar-18 17:33N 62°08' E 005°05'1110.9
2017-Mar-18 16:33N 61°57' E 005°09'1 1.4
2017-Mar-18 15:32N 61°56' E 005°07'5 5.3
2017-Mar-18 14:33N 61°52' E 005°14'9 9.3
2017-Mar-18 13:33N 61°45' E 005°01'1010.4
2017-Mar-18 12:33N 61°35' E 004°57'1110.6
2017-Mar-18 11:33N 61°25' E 004°58'8 8.0
2017-Mar-18 10:33N 61°17' E 004°55'1010.1
2017-Mar-18 09:32N 61°07' E 005°02'1010.6
2017-Mar-18 08:33N 60°58' E 004°51'9 9.4
2017-Mar-18 07:33N 60°49' E 004°45'1110.7
2017-Mar-18 06:33N 60°39' E 004°52'1111.0
2017-Mar-18 05:33N 60°29' E 004°60'10 9.9
2017-Mar-18 04:33N 60°20' E 005°10'1010.3
2017-Mar-18 03:33N 60°10' E 005°11'10 9.7
2017-Mar-18 02:33N 60°00' E 005°07'0 0.0
2017-Mar-18 01:33N 60°00' E 005°07'0 0.0
2017-Mar-18 00:33N 60°00' E 005°07'2 2.3
2017-Mar-17 23:33N 60°02' E 005°09'1110.6
2017-Mar-17 22:33N 60°13' E 005°10'9 9.2
2017-Mar-17 21:33N 60°22' E 005°10'9 9.0
2017-Mar-17 20:32N 60°31' E 005°15'5 5.1
2017-Mar-17 19:33N 60°30' E 005°26'0 0.0
2017-Mar-17 18:33N 60°30' E 005°26'0 0.0
2017-Mar-17 17:33N 60°30' E 005°26'0 0.2
2017-Mar-17 16:32N 60°30' E 005°25'10 9.9
2017-Mar-17 15:33N 60°36' E 005°09'1010.3
2017-Mar-17 14:34N 60°41' E 004°51'10 9.5
2017-Mar-17 13:33N 60°50' E 004°45'4 4.3
2017-Mar-17 12:33N 60°54' E 004°50'0 0.0
2017-Mar-17 11:33N 60°54' E 004°50'4 4.4
2017-Mar-17 10:33N 60°58' E 004°51'7 7.5
2017-Mar-17 09:34N 60°58' E 005°06'  

Dump ship's entire track history